Skip Navigation Links
NOAA logo - Click to go to the NOAA homepage
NOAA's National Weather Service
Alaska Aviation Weather Unit
  NWS logo - Click to go to the NWS homepage
Left Navbar Graphic     08 AKDT = 16 GMT

   
NOAA is celebrating 200 years of science, service, and stewardship. Visit the NOAA 200th celebration Web site to learn more.
USA.gov is the U.S. Government's official Web portal to all Federal, state and local government Web resources and services.
Facebook
NWS on Facebook

Important Change Regarding the AAWU Web Presence

 

Over the last several months, the AAWU has been working to navigate its webpages to a nationally supported server. Security, as well as other needs, have necessitated the change.  In the process, we have made an effort to enhance the functionality of our website, as well as some of our products. As of June 20, 2017, aawu.arh.noaa.gov will be discontinued. The new AAWU web address is weather.gov/aawu. It is now live and will run in-parallel with the old site until it is discontinued. Please send any feedback or questions regarding the new webpages to nws.ar.aawu.webauthors@noaa.gov.  Thank you for your patience during this time of transition.
AAWU Home :: Display TAF Add Bookmark
TAF PAYA 231515Z 2315/2412 VRB02KT P6SM FEW015 BKN050
     FM231900 29006KT P6SM SCT025 SCT040
     FM232300 26012KT P6SM SCT025
      AMD LTD TO CLD VIS AND WIND 2401/2409=

PAYA 231000Z AUTO 00000KT 3SM BR SCT007 OVC023 08/07 A2992= PAYA 231011Z AUTO 00000KT 3SM BR BKN007 OVC025 08/07 A2992= PAYA 231028Z AUTO 00000KT 3SM BR BKN003 OVC007 08/07 A2991= PAYA 231050Z AUTO 00000KT 3SM BR BKN005 OVC013 08/07 A2991= METAR PAYA 231053Z AUTO 00000KT 3SM BR BKN005 BKN009 OVC013 08/07 A2990 RMK AO2 CIG 002V007 SLP126 T00830072 TSNO= SPECI PAYA 231103Z AUTO 00000KT 2 1/2SM BR BKN007 OVC011 08/07 A2990 RMK AO2 CIG 003V010 T00830072 TSNO= SPECI PAYA 231110Z AUTO 32003KT 3SM BR SCT007 OVC012 08/07 A2990 RMK AO2 T00830072 TSNO= METAR PAYA 231153Z AUTO 00000KT 10SM OVC008 08/07 A2989 RMK AO2 CIG 004V011 SLP122 70003 T00830072 10083 20078 58009 TSNO= PAYA 231216Z AUTO 00000KT 10SM SCT006 OVC014 08/07 A2989= PAYA 231234Z AUTO 00000KT 10SM SCT005 OVC015 08/07 A2989= METAR PAYA 231253Z AUTO 00000KT 10SM FEW005 SCT017 BKN036 08/07 A2989 RMK AO2 SLP122 T00780067 TSNO= METAR PAYA 231353Z AUTO 00000KT 10SM OVC032 08/07 A2989 RMK AO2 SLP123 T00780072 TSNO= METAR PAYA 231453Z AUTO 00000KT 10SM SCT042 OVC055 09/08 A2990 RMK AO2 SLP123 T00890078 52001 TSNO= METAR PAYA 231553Z AUTO 31004KT 10SM BKN044 09/07 A2990 RMK AO2 SLP125 T00940072 TSNO=
 Alaska TAF Map

NOAA's National Weather Service
Alaska Aviation Weather Unit
6930 Sand Lake Road
Anchorage, AK 99502-1845
Disclaimer
Credits
Glossary
Privacy Policy
About Us
Career Opportunities
Contact AAWU Internet Services Site last modified: April, 17th 2012